sensor_id;sensor_type;location;lat;lon;timestamp;P1;durP1;ratioP1;P2;durP2;ratioP2
39434;SDS011;30098;51.880;-0.518;2022-12-20T00:00:56;1.65;;;0.60;;
39434;SDS011;30098;51.880;-0.518;2022-12-20T00:03:21;1.65;;;0.65;;
39434;SDS011;30098;51.880;-0.518;2022-12-20T00:05:47;1.38;;;0.60;;
39434;SDS011;30098;51.880;-0.518;2022-12-20T00:08:13;1.73;;;0.60;;
39434;SDS011;30098;51.880;-0.518;2022-12-20T00:10:40;1.10;;;0.50;;
39434;SDS011;30098;51.880;-0.518;2022-12-20T00:13:07;1.45;;;0.60;;
39434;SDS011;30098;51.880;-0.518;2022-12-20T00:15:33;1.85;;;0.60;;
39434;SDS011;30098;51.880;-0.518;2022-12-20T00:17:59;1.17;;;0.68;;
39434;SDS011;30098;51.880;-0.518;2022-12-20T00:20:25;1.67;;;0.70;;
39434;SDS011;30098;51.880;-0.518;2022-12-20T00:22:51;1.33;;;0.55;;
39434;SDS011;30098;51.880;-0.518;2022-12-20T00:25:17;2.33;;;0.77;;
39434;SDS011;30098;51.880;-0.518;2022-12-20T00:27:44;1.45;;;0.68;;
39434;SDS011;30098;51.880;-0.518;2022-12-20T00:30:09;1.08;;;0.50;;
39434;SDS011;30098;51.880;-0.518;2022-12-20T00:32:35;1.75;;;0.65;;
39434;SDS011;30098;51.880;-0.518;2022-12-20T00:35:01;1.33;;;0.60;;
39434;SDS011;30098;51.880;-0.518;2022-12-20T00:37:26;2.00;;;0.60;;
39434;SDS011;30098;51.880;-0.518;2022-12-20T00:39:52;1.40;;;0.60;;
39434;SDS011;30098;51.880;-0.518;2022-12-20T00:42:17;1.30;;;0.60;;
39434;SDS011;30098;51.880;-0.518;2022-12-20T00:44:42;2.65;;;0.70;;
39434;SDS011;30098;51.880;-0.518;2022-12-20T00:47:08;2.22;;;0.60;;
39434;SDS011;30098;51.880;-0.518;2022-12-20T00:49:34;2.08;;;0.70;;
39434;SDS011;30098;51.880;-0.518;2022-12-20T00:51:59;1.45;;;0.70;;
39434;SDS011;30098;51.880;-0.518;2022-12-20T00:54:25;1.65;;;0.60;;
39434;SDS011;30098;51.880;-0.518;2022-12-20T00:56:50;1.30;;;0.60;;
39434;SDS011;30098;51.880;-0.518;2022-12-20T00:59:16;1.13;;;0.60;;
39434;SDS011;30098;51.880;-0.518;2022-12-20T01:01:41;1.63;;;0.70;;
39434;SDS011;30098;51.880;-0.518;2022-12-20T01:04:06;0.90;;;0.50;;
39434;SDS011;30098;51.880;-0.518;2022-12-20T01:06:32;1.17;;;0.60;;
39434;SDS011;30098;51.880;-0.518;2022-12-20T01:08:59;2.75;;;0.70;;
39434;SDS011;30098;51.880;-0.518;2022-12-20T01:11:26;1.38;;;0.63;;
39434;SDS011;30098;51.880;-0.518;2022-12-20T01:13:54;1.23;;;0.60;;
39434;SDS011;30098;51.880;-0.518;2022-12-20T01:18:52;1.38;;;0.60;;
39434;SDS011;30098;51.880;-0.518;2022-12-20T01:21:18;2.55;;;0.85;;
39434;SDS011;30098;51.880;-0.518;2022-12-20T01:23:45;1.20;;;0.60;;
39434;SDS011;30098;51.880;-0.518;2022-12-20T01:26:13;1.77;;;0.70;;
39434;SDS011;30098;51.880;-0.518;2022-12-20T01:28:42;1.25;;;0.70;;
39434;SDS011;30098;51.880;-0.518;2022-12-20T01:33:42;2.00;;;0.80;;
39434;SDS011;30098;51.880;-0.518;2022-12-20T01:36:13;1.60;;;0.60;;
39434;SDS011;30098;51.880;-0.518;2022-12-20T01:38:41;1.80;;;0.68;;
39434;SDS011;30098;51.880;-0.518;2022-12-20T01:41:07;1.75;;;0.80;;
39434;SDS011;30098;51.880;-0.518;2022-12-20T01:43:47;1.13;;;0.70;;
39434;SDS011;30098;51.880;-0.518;2022-12-20T01:46:18;1.75;;;0.63;;
39434;SDS011;30098;51.880;-0.518;2022-12-20T01:48:47;1.50;;;0.60;;
39434;SDS011;30098;51.880;-0.518;2022-12-20T01:51:26;0.95;;;0.50;;
39434;SDS011;30098;51.880;-0.518;2022-12-20T01:53:58;2.03;;;0.75;;
39434;SDS011;30098;51.880;-0.518;2022-12-20T01:56:29;1.05;;;0.57;;
39434;SDS011;30098;51.880;-0.518;2022-12-20T01:58:54;1.08;;;0.50;;
39434;SDS011;30098;51.880;-0.518;2022-12-20T02:01:22;1.35;;;0.60;;
39434;SDS011;30098;51.880;-0.518;2022-12-20T02:03:48;2.10;;;0.70;;
39434;SDS011;30098;51.880;-0.518;2022-12-20T02:06:17;1.30;;;0.60;;
39434;SDS011;30098;51.880;-0.518;2022-12-20T02:08:45;1.20;;;0.50;;
39434;SDS011;30098;51.880;-0.518;2022-12-20T02:16:34;1.55;;;0.80;;
39434;SDS011;30098;51.880;-0.518;2022-12-20T02:30:17;1.60;;;0.60;;
39434;SDS011;30098;51.880;-0.518;2022-12-20T02:35:18;1.52;;;0.70;;
39434;SDS011;30098;51.880;-0.518;2022-12-20T02:37:47;2.08;;;0.75;;
39434;SDS011;30098;51.880;-0.518;2022-12-20T02:40:13;1.63;;;0.63;;
39434;SDS011;30098;51.880;-0.518;2022-12-20T02:42:41;1.17;;;0.55;;
39434;SDS011;30098;51.880;-0.518;2022-12-20T02:45:07;1.60;;;0.60;;
39434;SDS011;30098;51.880;-0.518;2022-12-20T02:50:16;0.90;;;0.47;;
39434;SDS011;30098;51.880;-0.518;2022-12-20T02:52:45;1.30;;;0.60;;
39434;SDS011;30098;51.880;-0.518;2022-12-20T02:55:11;1.40;;;0.60;;
39434;SDS011;30098;51.880;-0.518;2022-12-20T02:57:41;1.65;;;0.63;;
39434;SDS011;30098;51.880;-0.518;2022-12-20T03:00:11;2.05;;;0.80;;
39434;SDS011;30098;51.880;-0.518;2022-12-20T03:02:39;1.13;;;0.60;;
39434;SDS011;30098;51.880;-0.518;2022-12-20T03:05:25;1.13;;;0.50;;
39434;SDS011;30098;51.880;-0.518;2022-12-20T03:07:51;1.13;;;0.60;;
39434;SDS011;30098;51.880;-0.518;2022-12-20T03:10:17;1.45;;;0.70;;
39434;SDS011;30098;51.880;-0.518;2022-12-20T03:12:43;1.00;;;0.50;;
39434;SDS011;30098;51.880;-0.518;2022-12-20T03:15:09;1.50;;;0.60;;
39434;SDS011;30098;51.880;-0.518;2022-12-20T03:17:35;1.25;;;0.60;;
39434;SDS011;30098;51.880;-0.518;2022-12-20T03:20:00;0.98;;;0.40;;
39434;SDS011;30098;51.880;-0.518;2022-12-20T03:22:26;0.95;;;0.63;;
39434;SDS011;30098;51.880;-0.518;2022-12-20T03:24:52;1.83;;;0.60;;
39434;SDS011;30098;51.880;-0.518;2022-12-20T03:27:17;1.23;;;0.60;;
39434;SDS011;30098;51.880;-0.518;2022-12-20T03:29:43;0.95;;;0.55;;
39434;SDS011;30098;51.880;-0.518;2022-12-20T03:32:10;0.82;;;0.50;;
39434;SDS011;30098;51.880;-0.518;2022-12-20T03:34:36;1.05;;;0.50;;
39434;SDS011;30098;51.880;-0.518;2022-12-20T03:37:01;1.30;;;0.60;;
39434;SDS011;30098;51.880;-0.518;2022-12-20T03:39:26;1.58;;;0.57;;
39434;SDS011;30098;51.880;-0.518;2022-12-20T03:41:52;1.35;;;0.55;;
39434;SDS011;30098;51.880;-0.518;2022-12-20T03:44:17;1.15;;;0.50;;
39434;SDS011;30098;51.880;-0.518;2022-12-20T03:46:43;1.73;;;0.70;;
39434;SDS011;30098;51.880;-0.518;2022-12-20T03:49:08;1.38;;;0.50;;
39434;SDS011;30098;51.880;-0.518;2022-12-20T03:51:34;1.42;;;0.60;;
39434;SDS011;30098;51.880;-0.518;2022-12-20T03:53:59;1.08;;;0.50;;
39434;SDS011;30098;51.880;-0.518;2022-12-20T03:56:24;1.73;;;0.70;;
39434;SDS011;30098;51.880;-0.518;2022-12-20T03:58:50;1.92;;;0.60;;
39434;SDS011;30098;51.880;-0.518;2022-12-20T04:01:22;1.13;;;0.47;;
39434;SDS011;30098;51.880;-0.518;2022-12-20T04:03:50;1.88;;;0.50;;
39434;SDS011;30098;51.880;-0.518;2022-12-20T04:06:15;1.02;;;0.50;;
39434;SDS011;30098;51.880;-0.518;2022-12-20T04:08:41;1.23;;;0.68;;
39434;SDS011;30098;51.880;-0.518;2022-12-20T04:11:06;1.52;;;0.73;;
39434;SDS011;30098;51.880;-0.518;2022-12-20T04:13:41;1.65;;;0.60;;
39434;SDS011;30098;51.880;-0.518;2022-12-20T04:16:09;1.60;;;0.65;;
39434;SDS011;30098;51.880;-0.518;2022-12-20T04:18:35;1.80;;;0.60;;
39434;SDS011;30098;51.880;-0.518;2022-12-20T04:21:00;1.35;;;0.50;;
39434;SDS011;30098;51.880;-0.518;2022-12-20T04:23:26;2.53;;;0.93;;
39434;SDS011;30098;51.880;-0.518;2022-12-20T04:25:52;1.63;;;0.70;;
39434;SDS011;30098;51.880;-0.518;2022-12-20T04:28:17;1.40;;;0.70;;
39434;SDS011;30098;51.880;-0.518;2022-12-20T04:30:42;0.90;;;0.50;;
39434;SDS011;30098;51.880;-0.518;2022-12-20T04:33:08;1.48;;;0.50;;
39434;SDS011;30098;51.880;-0.518;2022-12-20T04:35:34;1.23;;;0.60;;
39434;SDS011;30098;51.880;-0.518;2022-12-20T04:38:00;1.00;;;0.55;;
39434;SDS011;30098;51.880;-0.518;2022-12-20T04:40:25;2.15;;;0.70;;
39434;SDS011;30098;51.880;-0.518;2022-12-20T04:42:51;1.70;;;0.60;;
39434;SDS011;30098;51.880;-0.518;2022-12-20T04:45:16;1.45;;;0.55;;
39434;SDS011;30098;51.880;-0.518;2022-12-20T04:47:42;1.40;;;0.60;;
39434;SDS011;30098;51.880;-0.518;2022-12-20T04:50:07;1.70;;;0.70;;
39434;SDS011;30098;51.880;-0.518;2022-12-20T04:52:33;1.30;;;0.60;;
39434;SDS011;30098;51.880;-0.518;2022-12-20T04:55:17;1.60;;;0.90;;
39434;SDS011;30098;51.880;-0.518;2022-12-20T04:57:42;1.48;;;0.50;;
39434;SDS011;30098;51.880;-0.518;2022-12-20T05:00:08;1.58;;;0.63;;
39434;SDS011;30098;51.880;-0.518;2022-12-20T05:02:34;1.33;;;0.50;;
39434;SDS011;30098;51.880;-0.518;2022-12-20T05:05:00;1.02;;;0.47;;
39434;SDS011;30098;51.880;-0.518;2022-12-20T05:07:25;1.98;;;0.88;;
39434;SDS011;30098;51.880;-0.518;2022-12-20T05:09:51;1.77;;;0.60;;
39434;SDS011;30098;51.880;-0.518;2022-12-20T05:12:16;1.67;;;0.60;;
39434;SDS011;30098;51.880;-0.518;2022-12-20T05:14:41;2.13;;;0.75;;
39434;SDS011;30098;51.880;-0.518;2022-12-20T05:17:07;1.50;;;0.57;;
39434;SDS011;30098;51.880;-0.518;2022-12-20T05:19:33;1.90;;;0.80;;
39434;SDS011;30098;51.880;-0.518;2022-12-20T05:21:59;1.80;;;0.70;;
39434;SDS011;30098;51.880;-0.518;2022-12-20T05:24:43;2.00;;;0.80;;
39434;SDS011;30098;51.880;-0.518;2022-12-20T05:27:27;1.52;;;0.65;;
39434;SDS011;30098;51.880;-0.518;2022-12-20T05:29:52;2.03;;;0.60;;
39434;SDS011;30098;51.880;-0.518;2022-12-20T05:32:18;1.52;;;0.60;;
39434;SDS011;30098;51.880;-0.518;2022-12-20T05:34:43;1.10;;;0.50;;
39434;SDS011;30098;51.880;-0.518;2022-12-20T05:37:09;1.88;;;0.68;;
39434;SDS011;30098;51.880;-0.518;2022-12-20T05:39:34;1.15;;;0.50;;
39434;SDS011;30098;51.880;-0.518;2022-12-20T05:42:00;1.60;;;0.68;;
39434;SDS011;30098;51.880;-0.518;2022-12-20T05:44:25;1.17;;;0.77;;
39434;SDS011;30098;51.880;-0.518;2022-12-20T05:46:51;1.77;;;0.70;;
39434;SDS011;30098;51.880;-0.518;2022-12-20T05:49:16;1.67;;;0.63;;
39434;SDS011;30098;51.880;-0.518;2022-12-20T05:51:42;1.08;;;0.50;;
39434;SDS011;30098;51.880;-0.518;2022-12-20T05:54:07;1.65;;;0.50;;
39434;SDS011;30098;51.880;-0.518;2022-12-20T05:56:33;1.38;;;0.55;;
39434;SDS011;30098;51.880;-0.518;2022-12-20T05:58:58;1.40;;;0.60;;
39434;SDS011;30098;51.880;-0.518;2022-12-20T06:01:24;1.60;;;0.50;;
39434;SDS011;30098;51.880;-0.518;2022-12-20T06:03:49;1.45;;;0.40;;
39434;SDS011;30098;51.880;-0.518;2022-12-20T06:06:15;1.13;;;0.50;;
39434;SDS011;30098;51.880;-0.518;2022-12-20T06:08:41;1.55;;;0.60;;
39434;SDS011;30098;51.880;-0.518;2022-12-20T06:11:07;0.85;;;0.43;;
39434;SDS011;30098;51.880;-0.518;2022-12-20T06:13:32;1.10;;;0.60;;
39434;SDS011;30098;51.880;-0.518;2022-12-20T06:15:58;1.33;;;0.65;;
39434;SDS011;30098;51.880;-0.518;2022-12-20T06:18:24;1.33;;;0.60;;
39434;SDS011;30098;51.880;-0.518;2022-12-20T06:20:50;1.08;;;0.50;;
39434;SDS011;30098;51.880;-0.518;2022-12-20T06:23:17;1.42;;;0.63;;
39434;SDS011;30098;51.880;-0.518;2022-12-20T06:25:43;0.93;;;0.50;;
39434;SDS011;30098;51.880;-0.518;2022-12-20T06:28:08;1.13;;;0.50;;
39434;SDS011;30098;51.880;-0.518;2022-12-20T06:30:34;1.02;;;0.43;;
39434;SDS011;30098;51.880;-0.518;2022-12-20T06:33:00;1.83;;;0.40;;
39434;SDS011;30098;51.880;-0.518;2022-12-20T06:35:26;0.93;;;0.50;;
39434;SDS011;30098;51.880;-0.518;2022-12-20T06:37:52;0.90;;;0.50;;
39434;SDS011;30098;51.880;-0.518;2022-12-20T06:40:17;1.45;;;0.50;;
39434;SDS011;30098;51.880;-0.518;2022-12-20T06:42:43;1.02;;;0.65;;
39434;SDS011;30098;51.880;-0.518;2022-12-20T06:45:08;1.15;;;0.50;;
39434;SDS011;30098;51.880;-0.518;2022-12-20T06:47:34;0.80;;;0.40;;
39434;SDS011;30098;51.880;-0.518;2022-12-20T06:50:00;1.48;;;0.73;;
39434;SDS011;30098;51.880;-0.518;2022-12-20T06:52:26;0.85;;;0.43;;
39434;SDS011;30098;51.880;-0.518;2022-12-20T06:54:51;1.25;;;0.57;;
39434;SDS011;30098;51.880;-0.518;2022-12-20T06:57:17;1.10;;;0.40;;
39434;SDS011;30098;51.880;-0.518;2022-12-20T06:59:43;1.00;;;0.40;;
39434;SDS011;30098;51.880;-0.518;2022-12-20T07:02:09;0.90;;;0.40;;
39434;SDS011;30098;51.880;-0.518;2022-12-20T07:04:36;0.98;;;0.40;;
39434;SDS011;30098;51.880;-0.518;2022-12-20T07:07:02;0.77;;;0.35;;
39434;SDS011;30098;51.880;-0.518;2022-12-20T07:09:28;0.98;;;0.60;;
39434;SDS011;30098;51.880;-0.518;2022-12-20T07:11:54;1.33;;;0.50;;
39434;SDS011;30098;51.880;-0.518;2022-12-20T07:14:20;0.80;;;0.40;;
39434;SDS011;30098;51.880;-0.518;2022-12-20T07:16:45;0.95;;;0.40;;
39434;SDS011;30098;51.880;-0.518;2022-12-20T07:19:11;0.80;;;0.40;;
39434;SDS011;30098;51.880;-0.518;2022-12-20T07:21:38;1.10;;;0.60;;
39434;SDS011;30098;51.880;-0.518;2022-12-20T07:24:04;0.80;;;0.40;;
39434;SDS011;30098;51.880;-0.518;2022-12-20T07:26:30;0.82;;;0.38;;
39434;SDS011;30098;51.880;-0.518;2022-12-20T07:28:56;0.68;;;0.40;;
39434;SDS011;30098;51.880;-0.518;2022-12-20T07:31:21;0.82;;;0.40;;
39434;SDS011;30098;51.880;-0.518;2022-12-20T07:33:47;0.90;;;0.40;;
39434;SDS011;30098;51.880;-0.518;2022-12-20T07:36:12;0.63;;;0.40;;
39434;SDS011;30098;51.880;-0.518;2022-12-20T07:38:40;0.88;;;0.30;;
39434;SDS011;30098;51.880;-0.518;2022-12-20T07:41:10;0.73;;;0.32;;
39434;SDS011;30098;51.880;-0.518;2022-12-20T07:43:37;0.65;;;0.35;;
39434;SDS011;30098;51.880;-0.518;2022-12-20T07:46:03;0.30;;;0.30;;
39434;SDS011;30098;51.880;-0.518;2022-12-20T07:48:30;0.50;;;0.30;;
39434;SDS011;30098;51.880;-0.518;2022-12-20T07:50:58;0.50;;;0.30;;
39434;SDS011;30098;51.880;-0.518;2022-12-20T07:53:26;0.40;;;0.20;;
39434;SDS011;30098;51.880;-0.518;2022-12-20T07:55:55;0.43;;;0.30;;
39434;SDS011;30098;51.880;-0.518;2022-12-20T07:58:22;0.90;;;0.45;;
39434;SDS011;30098;51.880;-0.518;2022-12-20T08:00:48;0.70;;;0.30;;
39434;SDS011;30098;51.880;-0.518;2022-12-20T08:03:24;0.40;;;0.20;;
39434;SDS011;30098;51.880;-0.518;2022-12-20T08:05:57;0.63;;;0.22;;
39434;SDS011;30098;51.880;-0.518;2022-12-20T08:08:27;0.50;;;0.30;;
39434;SDS011;30098;51.880;-0.518;2022-12-20T08:10:56;0.50;;;0.30;;
39434;SDS011;30098;51.880;-0.518;2022-12-20T08:13:21;0.35;;;0.25;;
39434;SDS011;30098;51.880;-0.518;2022-12-20T08:15:47;0.60;;;0.30;;
39434;SDS011;30098;51.880;-0.518;2022-12-20T08:18:13;0.57;;;0.30;;
39434;SDS011;30098;51.880;-0.518;2022-12-20T08:20:40;0.57;;;0.30;;
39434;SDS011;30098;51.880;-0.518;2022-12-20T08:23:05;0.75;;;0.40;;
39434;SDS011;30098;51.880;-0.518;2022-12-20T08:25:32;0.45;;;0.20;;
39434;SDS011;30098;51.880;-0.518;2022-12-20T08:27:58;0.30;;;0.20;;
39434;SDS011;30098;51.880;-0.518;2022-12-20T08:30:26;0.43;;;0.30;;
39434;SDS011;30098;51.880;-0.518;2022-12-20T08:32:52;1.92;;;0.40;;
39434;SDS011;30098;51.880;-0.518;2022-12-20T08:35:19;0.68;;;0.28;;
39434;SDS011;30098;51.880;-0.518;2022-12-20T08:37:44;0.40;;;0.20;;
39434;SDS011;30098;51.880;-0.518;2022-12-20T08:40:10;1.55;;;0.32;;
39434;SDS011;30098;51.880;-0.518;2022-12-20T08:42:35;1.17;;;0.40;;
39434;SDS011;30098;51.880;-0.518;2022-12-20T08:45:01;0.40;;;0.30;;
39434;SDS011;30098;51.880;-0.518;2022-12-20T08:47:27;0.80;;;0.40;;
39434;SDS011;30098;51.880;-0.518;2022-12-20T08:49:54;0.75;;;0.40;;
39434;SDS011;30098;51.880;-0.518;2022-12-20T08:52:19;0.50;;;0.40;;
39434;SDS011;30098;51.880;-0.518;2022-12-20T08:54:45;0.70;;;0.25;;
39434;SDS011;30098;51.880;-0.518;2022-12-20T08:57:11;0.77;;;0.20;;
39434;SDS011;30098;51.880;-0.518;2022-12-20T08:59:37;0.60;;;0.30;;
39434;SDS011;30098;51.880;-0.518;2022-12-20T09:02:02;1.13;;;0.40;;
39434;SDS011;30098;51.880;-0.518;2022-12-20T09:04:27;1.45;;;0.30;;
39434;SDS011;30098;51.880;-0.518;2022-12-20T09:06:53;0.30;;;0.25;;
39434;SDS011;30098;51.880;-0.518;2022-12-20T09:09:19;0.75;;;0.40;;
39434;SDS011;30098;51.880;-0.518;2022-12-20T09:11:44;1.98;;;0.43;;
39434;SDS011;30098;51.880;-0.518;2022-12-20T09:14:11;2.13;;;0.40;;
39434;SDS011;30098;51.880;-0.518;2022-12-20T09:16:36;3.90;;;0.70;;
39434;SDS011;30098;51.880;-0.518;2022-12-20T09:19:02;4.25;;;1.00;;
39434;SDS011;30098;51.880;-0.518;2022-12-20T09:21:28;1.60;;;0.60;;
39434;SDS011;30098;51.880;-0.518;2022-12-20T09:23:54;1.83;;;0.68;;
39434;SDS011;30098;51.880;-0.518;2022-12-20T09:26:22;4.03;;;0.63;;
39434;SDS011;30098;51.880;-0.518;2022-12-20T09:28:48;2.13;;;0.75;;
39434;SDS011;30098;51.880;-0.518;2022-12-20T09:31:16;2.38;;;0.73;;
39434;SDS011;30098;51.880;-0.518;2022-12-20T09:33:43;3.20;;;0.90;;
39434;SDS011;30098;51.880;-0.518;2022-12-20T09:36:18;3.35;;;0.80;;
39434;SDS011;30098;51.880;-0.518;2022-12-20T09:38:45;3.00;;;0.80;;
39434;SDS011;30098;51.880;-0.518;2022-12-20T09:41:17;5.28;;;0.85;;
39434;SDS011;30098;51.880;-0.518;2022-12-20T09:43:57;3.25;;;1.00;;
39434;SDS011;30098;51.880;-0.518;2022-12-20T09:46:24;3.95;;;0.80;;
39434;SDS011;30098;51.880;-0.518;2022-12-20T09:48:50;6.25;;;1.30;;
39434;SDS011;30098;51.880;-0.518;2022-12-20T09:54:11;2.88;;;0.80;;
39434;SDS011;30098;51.880;-0.518;2022-12-20T09:59:41;5.25;;;1.15;;
39434;SDS011;30098;51.880;-0.518;2022-12-20T10:02:11;5.60;;;0.93;;
39434;SDS011;30098;51.880;-0.518;2022-12-20T10:04:38;6.75;;;1.20;;
39434;SDS011;30098;51.880;-0.518;2022-12-20T10:10:05;6.07;;;1.55;;
39434;SDS011;30098;51.880;-0.518;2022-12-20T10:12:49;4.88;;;1.70;;
39434;SDS011;30098;51.880;-0.518;2022-12-20T10:15:27;7.97;;;1.60;;
39434;SDS011;30098;51.880;-0.518;2022-12-20T10:20:48;9.77;;;1.80;;
39434;SDS011;30098;51.880;-0.518;2022-12-20T10:26:15;6.20;;;1.42;;
39434;SDS011;30098;51.880;-0.518;2022-12-20T10:28:41;9.05;;;1.42;;
39434;SDS011;30098;51.880;-0.518;2022-12-20T10:31:10;10.52;;;1.90;;
39434;SDS011;30098;51.880;-0.518;2022-12-20T10:33:38;8.90;;;1.58;;
39434;SDS011;30098;51.880;-0.518;2022-12-20T10:36:24;11.40;;;2.42;;
39434;SDS011;30098;51.880;-0.518;2022-12-20T10:38:57;7.28;;;1.70;;
39434;SDS011;30098;51.880;-0.518;2022-12-20T10:41:28;9.65;;;1.95;;
39434;SDS011;30098;51.880;-0.518;2022-12-20T10:44:00;19.90;;;3.97;;
39434;SDS011;30098;51.880;-0.518;2022-12-20T10:49:19;12.05;;;2.10;;
39434;SDS011;30098;51.880;-0.518;2022-12-20T10:52:03;12.38;;;2.65;;
39434;SDS011;30098;51.880;-0.518;2022-12-20T10:54:37;8.20;;;2.20;;
39434;SDS011;30098;51.880;-0.518;2022-12-20T11:05:26;13.68;;;2.42;;
39434;SDS011;30098;51.880;-0.518;2022-12-20T11:07:58;8.23;;;1.80;;
39434;SDS011;30098;51.880;-0.518;2022-12-20T11:10:31;9.52;;;2.15;;
39434;SDS011;30098;51.880;-0.518;2022-12-20T11:12:58;8.02;;;2.22;;
39434;SDS011;30098;51.880;-0.518;2022-12-20T11:17:56;9.70;;;2.25;;
39434;SDS011;30098;51.880;-0.518;2022-12-20T11:36:02;15.70;;;3.45;;
39434;SDS011;30098;51.880;-0.518;2022-12-20T11:39:01;19.08;;;4.75;;
39434;SDS011;30098;51.880;-0.518;2022-12-20T11:41:39;12.85;;;3.50;;
39434;SDS011;30098;51.880;-0.518;2022-12-20T11:44:20;13.25;;;3.20;;
39434;SDS011;30098;51.880;-0.518;2022-12-20T11:49:37;12.48;;;3.90;;
39434;SDS011;30098;51.880;-0.518;2022-12-20T11:52:09;11.30;;;4.13;;
39434;SDS011;30098;51.880;-0.518;2022-12-20T11:55:02;16.02;;;4.40;;
39434;SDS011;30098;51.880;-0.518;2022-12-20T11:57:42;11.45;;;3.90;;
39434;SDS011;30098;51.880;-0.518;2022-12-20T12:00:15;11.43;;;3.97;;
39434;SDS011;30098;51.880;-0.518;2022-12-20T12:02:43;11.15;;;3.53;;
39434;SDS011;30098;51.880;-0.518;2022-12-20T12:05:17;14.38;;;3.75;;
39434;SDS011;30098;51.880;-0.518;2022-12-20T12:07:50;13.02;;;3.58;;
39434;SDS011;30098;51.880;-0.518;2022-12-20T12:10:21;10.40;;;3.30;;
39434;SDS011;30098;51.880;-0.518;2022-12-20T12:13:02;14.40;;;3.20;;
39434;SDS011;30098;51.880;-0.518;2022-12-20T12:18:19;9.60;;;3.17;;
39434;SDS011;30098;51.880;-0.518;2022-12-20T12:23:24;10.77;;;3.42;;
39434;SDS011;30098;51.880;-0.518;2022-12-20T12:25:54;11.80;;;3.85;;
39434;SDS011;30098;51.880;-0.518;2022-12-20T12:28:19;14.32;;;4.13;;
39434;SDS011;30098;51.880;-0.518;2022-12-20T12:30:51;12.40;;;4.00;;
39434;SDS011;30098;51.880;-0.518;2022-12-20T12:33:23;15.05;;;4.38;;
39434;SDS011;30098;51.880;-0.518;2022-12-20T12:41:32;11.80;;;4.18;;
39434;SDS011;30098;51.880;-0.518;2022-12-20T12:46:42;10.82;;;4.40;;
39434;SDS011;30098;51.880;-0.518;2022-12-20T12:49:10;10.20;;;3.63;;
39434;SDS011;30098;51.880;-0.518;2022-12-20T12:51:40;11.95;;;4.03;;
39434;SDS011;30098;51.880;-0.518;2022-12-20T12:56:46;10.10;;;3.63;;
39434;SDS011;30098;51.880;-0.518;2022-12-20T13:04:29;11.68;;;3.70;;
39434;SDS011;30098;51.880;-0.518;2022-12-20T13:07:29;9.63;;;3.60;;
39434;SDS011;30098;51.880;-0.518;2022-12-20T13:17:45;9.27;;;3.42;;
39434;SDS011;30098;51.880;-0.518;2022-12-20T13:20:18;9.77;;;3.78;;
39434;SDS011;30098;51.880;-0.518;2022-12-20T13:25:35;13.90;;;4.28;;
39434;SDS011;30098;51.880;-0.518;2022-12-20T13:44:07;19.45;;;5.47;;
39434;SDS011;30098;51.880;-0.518;2022-12-20T13:49:30;15.90;;;5.00;;
39434;SDS011;30098;51.880;-0.518;2022-12-20T13:52:44;14.60;;;4.85;;
39434;SDS011;30098;51.880;-0.518;2022-12-20T13:54:54;16.25;;;5.18;;
39434;SDS011;30098;51.880;-0.518;2022-12-20T13:57:28;13.85;;;4.32;;
39434;SDS011;30098;51.880;-0.518;2022-12-20T14:00:13;13.90;;;4.53;;
39434;SDS011;30098;51.880;-0.518;2022-12-20T14:02:42;16.40;;;5.07;;
39434;SDS011;30098;51.880;-0.518;2022-12-20T14:05:21;17.45;;;5.00;;
39434;SDS011;30098;51.880;-0.518;2022-12-20T14:08:02;16.23;;;4.85;;
39434;SDS011;30098;51.880;-0.518;2022-12-20T14:10:32;12.18;;;4.72;;
39434;SDS011;30098;51.880;-0.518;2022-12-20T14:12:58;11.00;;;4.82;;
39434;SDS011;30098;51.880;-0.518;2022-12-20T14:15:31;14.93;;;5.20;;
39434;SDS011;30098;51.880;-0.518;2022-12-20T14:18:06;16.10;;;5.13;;
39434;SDS011;30098;51.880;-0.518;2022-12-20T14:20:41;12.85;;;4.93;;
39434;SDS011;30098;51.880;-0.518;2022-12-20T14:23:13;15.27;;;5.15;;
39434;SDS011;30098;51.880;-0.518;2022-12-20T14:25:55;15.65;;;5.32;;
39434;SDS011;30098;51.880;-0.518;2022-12-20T14:31:03;16.13;;;5.45;;
39434;SDS011;30098;51.880;-0.518;2022-12-20T14:33:34;15.55;;;5.18;;
39434;SDS011;30098;51.880;-0.518;2022-12-20T14:36:20;15.80;;;5.30;;
39434;SDS011;30098;51.880;-0.518;2022-12-20T14:38:47;12.60;;;4.70;;
39434;SDS011;30098;51.880;-0.518;2022-12-20T14:41:33;12.57;;;4.95;;
39434;SDS011;30098;51.880;-0.518;2022-12-20T14:46:32;15.18;;;5.20;;
39434;SDS011;30098;51.880;-0.518;2022-12-20T14:51:43;11.77;;;4.72;;
39434;SDS011;30098;51.880;-0.518;2022-12-20T14:54:14;15.27;;;5.28;;
39434;SDS011;30098;51.880;-0.518;2022-12-20T14:56:46;18.05;;;5.70;;
39434;SDS011;30098;51.880;-0.518;2022-12-20T14:59:15;14.35;;;5.40;;
39434;SDS011;30098;51.880;-0.518;2022-12-20T15:01:48;18.92;;;5.50;;
39434;SDS011;30098;51.880;-0.518;2022-12-20T15:04:30;17.77;;;5.50;;
39434;SDS011;30098;51.880;-0.518;2022-12-20T15:06:57;19.45;;;5.40;;
39434;SDS011;30098;51.880;-0.518;2022-12-20T15:09:24;13.57;;;4.75;;
39434;SDS011;30098;51.880;-0.518;2022-12-20T15:11:50;14.88;;;5.78;;
39434;SDS011;30098;51.880;-0.518;2022-12-20T15:17:10;16.13;;;5.38;;
39434;SDS011;30098;51.880;-0.518;2022-12-20T15:19:38;14.63;;;5.10;;
39434;SDS011;30098;51.880;-0.518;2022-12-20T15:22:04;15.95;;;5.28;;
39434;SDS011;30098;51.880;-0.518;2022-12-20T15:24:30;19.65;;;5.70;;
39434;SDS011;30098;51.880;-0.518;2022-12-20T15:26:56;16.02;;;5.15;;
39434;SDS011;30098;51.880;-0.518;2022-12-20T15:29:23;19.17;;;5.20;;
39434;SDS011;30098;51.880;-0.518;2022-12-20T15:31:51;19.10;;;5.45;;
39434;SDS011;30098;51.880;-0.518;2022-12-20T15:34:26;16.27;;;5.40;;
39434;SDS011;30098;51.880;-0.518;2022-12-20T15:36:55;17.23;;;5.47;;
39434;SDS011;30098;51.880;-0.518;2022-12-20T15:39:24;15.52;;;5.07;;
39434;SDS011;30098;51.880;-0.518;2022-12-20T15:41:50;12.93;;;4.68;;
39434;SDS011;30098;51.880;-0.518;2022-12-20T15:44:18;13.18;;;4.53;;
39434;SDS011;30098;51.880;-0.518;2022-12-20T15:46:45;17.67;;;5.38;;
39434;SDS011;30098;51.880;-0.518;2022-12-20T15:49:14;15.07;;;4.95;;
39434;SDS011;30098;51.880;-0.518;2022-12-20T15:51:41;16.33;;;4.32;;
39434;SDS011;30098;51.880;-0.518;2022-12-20T15:57:01;12.02;;;4.05;;
39434;SDS011;30098;51.880;-0.518;2022-12-20T15:59:31;13.05;;;4.38;;
39434;SDS011;30098;51.880;-0.518;2022-12-20T16:01:57;11.20;;;4.57;;
39434;SDS011;30098;51.880;-0.518;2022-12-20T16:04:22;11.20;;;4.30;;
39434;SDS011;30098;51.880;-0.518;2022-12-20T16:06:49;11.65;;;4.00;;
39434;SDS011;30098;51.880;-0.518;2022-12-20T16:09:15;13.48;;;3.53;;
39434;SDS011;30098;51.880;-0.518;2022-12-20T16:11:42;14.75;;;3.90;;
39434;SDS011;30098;51.880;-0.518;2022-12-20T16:14:14;13.45;;;4.22;;
39434;SDS011;30098;51.880;-0.518;2022-12-20T16:16:41;12.43;;;4.20;;
39434;SDS011;30098;51.880;-0.518;2022-12-20T16:19:08;12.40;;;4.18;;
39434;SDS011;30098;51.880;-0.518;2022-12-20T16:21:35;14.18;;;4.05;;
39434;SDS011;30098;51.880;-0.518;2022-12-20T16:24:10;11.13;;;3.60;;
39434;SDS011;30098;51.880;-0.518;2022-12-20T16:26:37;13.57;;;4.20;;
39434;SDS011;30098;51.880;-0.518;2022-12-20T16:29:02;14.23;;;4.05;;
39434;SDS011;30098;51.880;-0.518;2022-12-20T16:31:29;13.00;;;4.03;;
39434;SDS011;30098;51.880;-0.518;2022-12-20T16:33:56;21.38;;;4.50;;
39434;SDS011;30098;51.880;-0.518;2022-12-20T16:36:23;18.23;;;4.68;;
39434;SDS011;30098;51.880;-0.518;2022-12-20T16:38:49;20.63;;;4.30;;
39434;SDS011;30098;51.880;-0.518;2022-12-20T16:41:16;18.02;;;4.35;;
39434;SDS011;30098;51.880;-0.518;2022-12-20T16:43:43;23.00;;;4.80;;
39434;SDS011;30098;51.880;-0.518;2022-12-20T16:46:13;15.85;;;4.05;;
39434;SDS011;30098;51.880;-0.518;2022-12-20T16:48:41;18.98;;;4.85;;
39434;SDS011;30098;51.880;-0.518;2022-12-20T16:53:59;16.05;;;3.90;;
39434;SDS011;30098;51.880;-0.518;2022-12-20T16:56:26;22.02;;;3.88;;
39434;SDS011;30098;51.880;-0.518;2022-12-20T16:58:52;13.40;;;3.80;;